sensor_id;sensor_type;location;lat;lon;timestamp;temperature;humidity
21275;DHT22;36472;52.170;20.884;2024-01-27T00:01:18;25.60;40.40
21275;DHT22;36472;52.170;20.884;2024-01-27T00:03:47;25.70;40.60
21275;DHT22;36472;52.170;20.884;2024-01-27T00:06:19;26.10;40.60
21275;DHT22;36472;52.170;20.884;2024-01-27T00:08:48;26.30;40.20
21275;DHT22;36472;52.170;20.884;2024-01-27T00:11:17;26.00;39.60
21275;DHT22;36472;52.170;20.884;2024-01-27T00:13:46;25.50;39.60
21275;DHT22;36472;52.170;20.884;2024-01-27T00:16:15;25.30;40.20
21275;DHT22;36472;52.170;20.884;2024-01-27T00:18:44;25.70;40.20
21275;DHT22;36472;52.170;20.884;2024-01-27T00:21:14;25.40;40.20
21275;DHT22;36472;52.170;20.884;2024-01-27T00:23:45;25.80;40.20
21275;DHT22;36472;52.170;20.884;2024-01-27T00:26:14;25.40;40.00
21275;DHT22;36472;52.170;20.884;2024-01-27T00:28:43;25.70;40.10
21275;DHT22;36472;52.170;20.884;2024-01-27T00:31:12;25.70;39.80
21275;DHT22;36472;52.170;20.884;2024-01-27T00:33:41;25.80;40.10
21275;DHT22;36472;52.170;20.884;2024-01-27T00:36:10;25.60;39.40
21275;DHT22;36472;52.170;20.884;2024-01-27T00:38:39;25.60;39.30
21275;DHT22;36472;52.170;20.884;2024-01-27T00:41:16;25.60;39.60
21275;DHT22;36472;52.170;20.884;2024-01-27T00:43:45;25.40;39.60
21275;DHT22;36472;52.170;20.884;2024-01-27T00:46:15;25.60;39.50
21275;DHT22;36472;52.170;20.884;2024-01-27T00:48:43;25.80;39.40
21275;DHT22;36472;52.170;20.884;2024-01-27T00:51:13;25.70;38.90
21275;DHT22;36472;52.170;20.884;2024-01-27T00:53:42;25.90;39.20
21275;DHT22;36472;52.170;20.884;2024-01-27T00:56:13;26.00;38.80
21275;DHT22;36472;52.170;20.884;2024-01-27T00:58:42;26.10;38.70
21275;DHT22;36472;52.170;20.884;2024-01-27T01:01:11;26.40;38.60
21275;DHT22;36472;52.170;20.884;2024-01-27T01:03:40;26.20;37.90
21275;DHT22;36472;52.170;20.884;2024-01-27T01:06:09;26.10;38.00
21275;DHT22;36472;52.170;20.884;2024-01-27T01:08:38;26.10;38.00
21275;DHT22;36472;52.170;20.884;2024-01-27T01:11:07;26.10;38.00
21275;DHT22;36472;52.170;20.884;2024-01-27T01:13:38;26.10;38.10
21275;DHT22;36472;52.170;20.884;2024-01-27T01:16:07;26.20;37.80
21275;DHT22;36472;52.170;20.884;2024-01-27T01:18:36;26.50;38.10
21275;DHT22;36472;52.170;20.884;2024-01-27T01:21:06;26.60;37.70
21275;DHT22;36472;52.170;20.884;2024-01-27T01:23:35;26.20;37.40
21275;DHT22;36472;52.170;20.884;2024-01-27T01:26:04;26.20;37.40
21275;DHT22;36472;52.170;20.884;2024-01-27T01:28:33;26.00;37.40
21275;DHT22;36472;52.170;20.884;2024-01-27T01:31:06;26.10;37.50
21275;DHT22;36472;52.170;20.884;2024-01-27T01:33:35;26.20;37.60
21275;DHT22;36472;52.170;20.884;2024-01-27T01:36:05;26.30;37.50
21275;DHT22;36472;52.170;20.884;2024-01-27T01:38:34;26.50;37.50
21275;DHT22;36472;52.170;20.884;2024-01-27T01:41:04;26.60;37.40
21275;DHT22;36472;52.170;20.884;2024-01-27T01:43:32;26.60;37.40
21275;DHT22;36472;52.170;20.884;2024-01-27T01:46:03;26.80;37.20
21275;DHT22;36472;52.170;20.884;2024-01-27T01:48:33;26.60;37.10
21275;DHT22;36472;52.170;20.884;2024-01-27T01:51:03;26.60;37.70
21275;DHT22;36472;52.170;20.884;2024-01-27T01:53:33;26.50;36.90
21275;DHT22;36472;52.170;20.884;2024-01-27T01:56:02;26.60;37.00
21275;DHT22;36472;52.170;20.884;2024-01-27T01:58:33;26.70;37.00
21275;DHT22;36472;52.170;20.884;2024-01-27T02:01:04;26.60;36.90
21275;DHT22;36472;52.170;20.884;2024-01-27T02:03:33;26.50;37.00
21275;DHT22;36472;52.170;20.884;2024-01-27T02:06:02;26.70;36.90
21275;DHT22;36472;52.170;20.884;2024-01-27T02:08:31;26.70;36.90
21275;DHT22;36472;52.170;20.884;2024-01-27T02:11:00;26.80;36.70
21275;DHT22;36472;52.170;20.884;2024-01-27T02:13:30;26.90;36.70
21275;DHT22;36472;52.170;20.884;2024-01-27T02:15:59;26.90;36.70
21275;DHT22;36472;52.170;20.884;2024-01-27T02:18:29;27.00;36.50
21275;DHT22;36472;52.170;20.884;2024-01-27T02:20:59;27.20;36.50
21275;DHT22;36472;52.170;20.884;2024-01-27T02:23:28;26.90;36.30
21275;DHT22;36472;52.170;20.884;2024-01-27T02:25:58;26.90;36.40
21275;DHT22;36472;52.170;20.884;2024-01-27T02:28:27;27.00;36.20
21275;DHT22;36472;52.170;20.884;2024-01-27T02:30:59;27.10;36.30
21275;DHT22;36472;52.170;20.884;2024-01-27T02:33:28;27.20;36.30
21275;DHT22;36472;52.170;20.884;2024-01-27T02:35:58;27.10;36.10
21275;DHT22;36472;52.170;20.884;2024-01-27T02:38:27;27.20;36.10
21275;DHT22;36472;52.170;20.884;2024-01-27T02:40:57;27.00;35.90
21275;DHT22;36472;52.170;20.884;2024-01-27T02:43:26;27.20;36.00
21275;DHT22;36472;52.170;20.884;2024-01-27T02:45:55;27.00;36.00
21275;DHT22;36472;52.170;20.884;2024-01-27T02:48:24;26.90;36.00
21275;DHT22;36472;52.170;20.884;2024-01-27T02:50:53;26.60;36.20
21275;DHT22;36472;52.170;20.884;2024-01-27T02:53:23;26.70;36.40
21275;DHT22;36472;52.170;20.884;2024-01-27T02:55:52;26.90;36.40
21275;DHT22;36472;52.170;20.884;2024-01-27T02:58:22;26.90;36.20
21275;DHT22;36472;52.170;20.884;2024-01-27T03:00:51;26.90;36.10
21275;DHT22;36472;52.170;20.884;2024-01-27T03:03:20;26.90;36.10
21275;DHT22;36472;52.170;20.884;2024-01-27T03:05:49;26.90;35.90
21275;DHT22;36472;52.170;20.884;2024-01-27T03:08:18;27.00;35.90
21275;DHT22;36472;52.170;20.884;2024-01-27T03:10:48;26.90;35.90
21275;DHT22;36472;52.170;20.884;2024-01-27T03:13:16;27.00;36.00
21275;DHT22;36472;52.170;20.884;2024-01-27T03:15:48;27.00;35.80
21275;DHT22;36472;52.170;20.884;2024-01-27T03:18:17;26.90;35.60
21275;DHT22;36472;52.170;20.884;2024-01-27T03:20:47;26.90;35.60
21275;DHT22;36472;52.170;20.884;2024-01-27T03:23:16;26.80;35.70
21275;DHT22;36472;52.170;20.884;2024-01-27T03:25:45;26.90;35.60
21275;DHT22;36472;52.170;20.884;2024-01-27T03:28:14;27.00;35.60
21275;DHT22;36472;52.170;20.884;2024-01-27T03:30:44;26.70;35.20
21275;DHT22;36472;52.170;20.884;2024-01-27T03:33:14;26.80;35.60
21275;DHT22;36472;52.170;20.884;2024-01-27T03:35:43;26.80;35.30
21275;DHT22;36472;52.170;20.884;2024-01-27T03:38:12;26.80;35.50
21275;DHT22;36472;52.170;20.884;2024-01-27T03:40:41;26.80;35.60
21275;DHT22;36472;52.170;20.884;2024-01-27T03:43:10;26.90;35.30
21275;DHT22;36472;52.170;20.884;2024-01-27T03:45:39;26.90;35.10
21275;DHT22;36472;52.170;20.884;2024-01-27T03:48:08;26.70;35.40
21275;DHT22;36472;52.170;20.884;2024-01-27T03:50:39;26.60;35.10
21275;DHT22;36472;52.170;20.884;2024-01-27T03:53:08;26.90;35.50
21275;DHT22;36472;52.170;20.884;2024-01-27T03:55:37;26.70;35.20
21275;DHT22;36472;52.170;20.884;2024-01-27T03:58:06;26.80;35.30
21275;DHT22;36472;52.170;20.884;2024-01-27T04:00:35;26.80;35.20
21275;DHT22;36472;52.170;20.884;2024-01-27T04:03:04;26.80;35.30
21275;DHT22;36472;52.170;20.884;2024-01-27T04:05:34;27.00;35.30
21275;DHT22;36472;52.170;20.884;2024-01-27T04:08:05;26.80;35.50
21275;DHT22;36472;52.170;20.884;2024-01-27T04:10:35;26.90;35.50
21275;DHT22;36472;52.170;20.884;2024-01-27T04:13:05;27.10;35.40
21275;DHT22;36472;52.170;20.884;2024-01-27T04:15:34;27.00;35.40
21275;DHT22;36472;52.170;20.884;2024-01-27T04:18:07;27.10;35.50
21275;DHT22;36472;52.170;20.884;2024-01-27T04:20:37;27.10;35.20
21275;DHT22;36472;52.170;20.884;2024-01-27T04:23:08;27.20;35.30
21275;DHT22;36472;52.170;20.884;2024-01-27T04:25:37;27.10;35.20
21275;DHT22;36472;52.170;20.884;2024-01-27T04:28:05;27.10;35.10
21275;DHT22;36472;52.170;20.884;2024-01-27T04:30:36;26.90;35.00
21275;DHT22;36472;52.170;20.884;2024-01-27T04:33:05;26.90;35.10
21275;DHT22;36472;52.170;20.884;2024-01-27T04:35:36;26.90;35.00
21275;DHT22;36472;52.170;20.884;2024-01-27T04:38:05;27.10;35.10
21275;DHT22;36472;52.170;20.884;2024-01-27T04:40:35;26.60;34.90
21275;DHT22;36472;52.170;20.884;2024-01-27T04:43:04;26.40;35.30
21275;DHT22;36472;52.170;20.884;2024-01-27T04:45:34;26.40;35.40
21275;DHT22;36472;52.170;20.884;2024-01-27T04:48:03;26.60;35.40
21275;DHT22;36472;52.170;20.884;2024-01-27T04:50:33;26.60;35.30
21275;DHT22;36472;52.170;20.884;2024-01-27T04:53:02;26.50;35.40
21275;DHT22;36472;52.170;20.884;2024-01-27T04:55:31;26.60;35.20
21275;DHT22;36472;52.170;20.884;2024-01-27T04:58:02;26.60;35.40
21275;DHT22;36472;52.170;20.884;2024-01-27T05:00:31;26.80;35.30
21275;DHT22;36472;52.170;20.884;2024-01-27T05:03:00;26.80;35.40
21275;DHT22;36472;52.170;20.884;2024-01-27T05:05:32;26.70;35.40
21275;DHT22;36472;52.170;20.884;2024-01-27T05:08:03;26.70;35.40
21275;DHT22;36472;52.170;20.884;2024-01-27T05:10:33;26.60;35.40
21275;DHT22;36472;52.170;20.884;2024-01-27T05:13:03;26.70;35.40
21275;DHT22;36472;52.170;20.884;2024-01-27T05:15:33;26.70;35.30
21275;DHT22;36472;52.170;20.884;2024-01-27T05:18:02;26.80;35.30
21275;DHT22;36472;52.170;20.884;2024-01-27T05:20:31;26.80;35.30
21275;DHT22;36472;52.170;20.884;2024-01-27T05:23:00;26.90;35.30
21275;DHT22;36472;52.170;20.884;2024-01-27T05:25:30;27.00;35.10
21275;DHT22;36472;52.170;20.884;2024-01-27T05:27:59;27.00;35.00
21275;DHT22;36472;52.170;20.884;2024-01-27T05:30:29;27.00;35.40
21275;DHT22;36472;52.170;20.884;2024-01-27T05:32:58;27.10;35.40
21275;DHT22;36472;52.170;20.884;2024-01-27T05:35:28;27.20;35.50
21275;DHT22;36472;52.170;20.884;2024-01-27T05:37:57;27.00;35.40
21275;DHT22;36472;52.170;20.884;2024-01-27T05:40:26;27.00;35.60
21275;DHT22;36472;52.170;20.884;2024-01-27T05:42:55;27.00;35.60
21275;DHT22;36472;52.170;20.884;2024-01-27T05:45:24;27.10;35.60
21275;DHT22;36472;52.170;20.884;2024-01-27T05:47:55;27.10;35.20
21275;DHT22;36472;52.170;20.884;2024-01-27T05:50:24;27.10;35.20
21275;DHT22;36472;52.170;20.884;2024-01-27T05:52:55;27.20;35.00
21275;DHT22;36472;52.170;20.884;2024-01-27T05:55:24;27.00;34.80
21275;DHT22;36472;52.170;20.884;2024-01-27T05:57:53;27.10;34.70
21275;DHT22;36472;52.170;20.884;2024-01-27T06:00:23;27.20;34.80
21275;DHT22;36472;52.170;20.884;2024-01-27T06:02:51;27.20;34.40
21275;DHT22;36472;52.170;20.884;2024-01-27T06:05:22;27.30;34.40
21275;DHT22;36472;52.170;20.884;2024-01-27T06:07:51;27.00;34.10
21275;DHT22;36472;52.170;20.884;2024-01-27T06:10:20;27.10;34.40
21275;DHT22;36472;52.170;20.884;2024-01-27T06:12:51;27.00;34.30
21275;DHT22;36472;52.170;20.884;2024-01-27T06:15:20;27.00;34.50
21275;DHT22;36472;52.170;20.884;2024-01-27T06:17:49;27.00;34.40
21275;DHT22;36472;52.170;20.884;2024-01-27T06:20:19;26.70;34.50
21275;DHT22;36472;52.170;20.884;2024-01-27T06:22:49;26.70;35.00
21275;DHT22;36472;52.170;20.884;2024-01-27T06:25:23;26.30;35.20
21275;DHT22;36472;52.170;20.884;2024-01-27T06:27:55;26.60;35.50
21275;DHT22;36472;52.170;20.884;2024-01-27T06:30:25;26.70;35.80
21275;DHT22;36472;52.170;20.884;2024-01-27T06:32:54;26.70;35.70
21275;DHT22;36472;52.170;20.884;2024-01-27T06:35:23;26.70;35.70
21275;DHT22;36472;52.170;20.884;2024-01-27T06:37:53;26.60;35.50
21275;DHT22;36472;52.170;20.884;2024-01-27T06:40:22;26.50;35.80
21275;DHT22;36472;52.170;20.884;2024-01-27T06:42:51;26.50;35.90
21275;DHT22;36472;52.170;20.884;2024-01-27T06:45:21;26.60;36.10
21275;DHT22;36472;52.170;20.884;2024-01-27T06:47:50;26.60;36.10
21275;DHT22;36472;52.170;20.884;2024-01-27T06:50:19;26.60;36.10
21275;DHT22;36472;52.170;20.884;2024-01-27T06:52:48;26.60;35.90
21275;DHT22;36472;52.170;20.884;2024-01-27T06:55:18;26.60;36.00
21275;DHT22;36472;52.170;20.884;2024-01-27T06:57:47;26.50;36.10
21275;DHT22;36472;52.170;20.884;2024-01-27T07:00:17;26.50;36.10
21275;DHT22;36472;52.170;20.884;2024-01-27T07:02:47;26.20;36.00
21275;DHT22;36472;52.170;20.884;2024-01-27T07:05:16;26.30;36.30
21275;DHT22;36472;52.170;20.884;2024-01-27T07:07:45;26.50;36.40
21275;DHT22;36472;52.170;20.884;2024-01-27T07:10:14;26.40;36.30
21275;DHT22;36472;52.170;20.884;2024-01-27T07:12:44;26.30;36.40
21275;DHT22;36472;52.170;20.884;2024-01-27T07:15:14;26.20;36.60
21275;DHT22;36472;52.170;20.884;2024-01-27T07:17:44;26.30;36.60
21275;DHT22;36472;52.170;20.884;2024-01-27T07:20:13;26.30;36.50
21275;DHT22;36472;52.170;20.884;2024-01-27T07:22:42;26.40;36.70
21275;DHT22;36472;52.170;20.884;2024-01-27T07:25:11;26.50;36.70
21275;DHT22;36472;52.170;20.884;2024-01-27T07:27:41;26.40;36.60
21275;DHT22;36472;52.170;20.884;2024-01-27T07:30:12;26.10;36.60
21275;DHT22;36472;52.170;20.884;2024-01-27T07:32:42;26.30;37.00
21275;DHT22;36472;52.170;20.884;2024-01-27T07:35:12;26.20;36.80
21275;DHT22;36472;52.170;20.884;2024-01-27T07:37:42;26.20;37.00
21275;DHT22;36472;52.170;20.884;2024-01-27T07:40:12;26.20;36.80
21275;DHT22;36472;52.170;20.884;2024-01-27T07:42:41;26.10;36.80
21275;DHT22;36472;52.170;20.884;2024-01-27T07:45:11;26.30;36.90
21275;DHT22;36472;52.170;20.884;2024-01-27T07:47:40;26.30;36.90
21275;DHT22;36472;52.170;20.884;2024-01-27T07:50:10;26.20;36.80
21275;DHT22;36472;52.170;20.884;2024-01-27T07:52:39;26.20;37.00
21275;DHT22;36472;52.170;20.884;2024-01-27T07:55:09;26.30;37.10
21275;DHT22;36472;52.170;20.884;2024-01-27T07:57:38;26.40;37.00
21275;DHT22;36472;52.170;20.884;2024-01-27T08:00:08;26.30;37.00
21275;DHT22;36472;52.170;20.884;2024-01-27T08:02:39;26.40;37.00
21275;DHT22;36472;52.170;20.884;2024-01-27T08:05:09;26.40;36.90
21275;DHT22;36472;52.170;20.884;2024-01-27T08:07:38;26.30;36.90
21275;DHT22;36472;52.170;20.884;2024-01-27T08:10:07;26.30;37.00
21275;DHT22;36472;52.170;20.884;2024-01-27T08:12:38;26.30;37.00
21275;DHT22;36472;52.170;20.884;2024-01-27T08:15:09;26.20;37.00
21275;DHT22;36472;52.170;20.884;2024-01-27T08:17:39;26.30;37.20
21275;DHT22;36472;52.170;20.884;2024-01-27T08:20:09;26.10;37.20
21275;DHT22;36472;52.170;20.884;2024-01-27T08:22:40;26.20;37.20
21275;DHT22;36472;52.170;20.884;2024-01-27T08:25:09;26.20;37.20
21275;DHT22;36472;52.170;20.884;2024-01-27T08:27:38;26.20;37.30
21275;DHT22;36472;52.170;20.884;2024-01-27T08:30:08;26.20;37.40
21275;DHT22;36472;52.170;20.884;2024-01-27T08:32:38;26.30;37.20
21275;DHT22;36472;52.170;20.884;2024-01-27T08:35:08;26.40;37.20
21275;DHT22;36472;52.170;20.884;2024-01-27T08:37:38;26.20;37.00
21275;DHT22;36472;52.170;20.884;2024-01-27T08:40:08;26.30;37.30
21275;DHT22;36472;52.170;20.884;2024-01-27T08:42:39;26.30;37.00
21275;DHT22;36472;52.170;20.884;2024-01-27T08:45:08;26.20;37.20
21275;DHT22;36472;52.170;20.884;2024-01-27T08:47:39;26.40;37.40
21275;DHT22;36472;52.170;20.884;2024-01-27T08:50:10;26.50;37.30
21275;DHT22;36472;52.170;20.884;2024-01-27T08:52:39;26.40;37.00
21275;DHT22;36472;52.170;20.884;2024-01-27T08:55:08;26.40;37.00
21275;DHT22;36472;52.170;20.884;2024-01-27T08:57:37;26.30;37.30
21275;DHT22;36472;52.170;20.884;2024-01-27T09:00:07;26.30;37.20
21275;DHT22;36472;52.170;20.884;2024-01-27T09:02:38;26.30;37.40
21275;DHT22;36472;52.170;20.884;2024-01-27T09:05:08;26.20;37.40
21275;DHT22;36472;52.170;20.884;2024-01-27T09:07:37;26.30;37.50
21275;DHT22;36472;52.170;20.884;2024-01-27T09:10:07;26.20;37.30
21275;DHT22;36472;52.170;20.884;2024-01-27T09:12:36;26.30;38.20
21275;DHT22;36472;52.170;20.884;2024-01-27T09:15:07;26.40;37.60
21275;DHT22;36472;52.170;20.884;2024-01-27T09:17:36;26.40;37.60
21275;DHT22;36472;52.170;20.884;2024-01-27T09:20:08;26.50;37.60
21275;DHT22;36472;52.170;20.884;2024-01-27T09:22:37;26.40;37.50
21275;DHT22;36472;52.170;20.884;2024-01-27T09:25:08;26.50;37.60
21275;DHT22;36472;52.170;20.884;2024-01-27T09:27:37;26.50;37.50
21275;DHT22;36472;52.170;20.884;2024-01-27T09:30:07;26.60;37.60
21275;DHT22;36472;52.170;20.884;2024-01-27T09:32:36;26.50;37.50
21275;DHT22;36472;52.170;20.884;2024-01-27T09:35:07;26.60;37.60
21275;DHT22;36472;52.170;20.884;2024-01-27T09:37:36;26.50;37.50
21275;DHT22;36472;52.170;20.884;2024-01-27T09:40:06;26.60;37.70
21275;DHT22;36472;52.170;20.884;2024-01-27T09:42:38;26.40;37.60
21275;DHT22;36472;52.170;20.884;2024-01-27T09:45:09;26.50;37.90
21275;DHT22;36472;52.170;20.884;2024-01-27T09:47:38;26.60;37.80
21275;DHT22;36472;52.170;20.884;2024-01-27T09:50:11;26.60;37.80
21275;DHT22;36472;52.170;20.884;2024-01-27T09:52:40;26.60;37.90
21275;DHT22;36472;52.170;20.884;2024-01-27T09:55:09;26.50;37.70
21275;DHT22;36472;52.170;20.884;2024-01-27T09:57:39;26.50;37.60
21275;DHT22;36472;52.170;20.884;2024-01-27T10:00:11;26.60;37.60
21275;DHT22;36472;52.170;20.884;2024-01-27T10:02:41;26.60;37.80
21275;DHT22;36472;52.170;20.884;2024-01-27T10:05:13;26.60;37.50
21275;DHT22;36472;52.170;20.884;2024-01-27T10:07:42;26.50;37.50
21275;DHT22;36472;52.170;20.884;2024-01-27T10:10:11;26.60;37.60
21275;DHT22;36472;52.170;20.884;2024-01-27T10:12:41;26.60;37.70
21275;DHT22;36472;52.170;20.884;2024-01-27T10:15:20;26.60;37.50
21275;DHT22;36472;52.170;20.884;2024-01-27T10:17:50;26.50;37.70
21275;DHT22;36472;52.170;20.884;2024-01-27T10:20:21;26.50;37.90
21275;DHT22;36472;52.170;20.884;2024-01-27T10:22:49;26.60;37.90
21275;DHT22;36472;52.170;20.884;2024-01-27T10:25:19;26.60;37.70
21275;DHT22;36472;52.170;20.884;2024-01-27T10:27:47;26.70;37.90
21275;DHT22;36472;52.170;20.884;2024-01-27T10:30:17;26.70;37.70
21275;DHT22;36472;52.170;20.884;2024-01-27T10:32:55;26.80;37.70
21275;DHT22;36472;52.170;20.884;2024-01-27T10:35:27;26.70;37.60
21275;DHT22;36472;52.170;20.884;2024-01-27T10:37:56;26.70;37.70
21275;DHT22;36472;52.170;20.884;2024-01-27T10:40:27;26.70;37.70
21275;DHT22;36472;52.170;20.884;2024-01-27T10:43:01;26.70;37.60
21275;DHT22;36472;52.170;20.884;2024-01-27T10:45:35;26.70;37.70
21275;DHT22;36472;52.170;20.884;2024-01-27T10:48:06;26.70;37.80
21275;DHT22;36472;52.170;20.884;2024-01-27T10:50:40;26.80;37.70
21275;DHT22;36472;52.170;20.884;2024-01-27T10:53:22;26.80;37.70
21275;DHT22;36472;52.170;20.884;2024-01-27T10:55:57;26.60;37.30
21275;DHT22;36472;52.170;20.884;2024-01-27T10:58:27;26.60;37.60
21275;DHT22;36472;52.170;20.884;2024-01-27T11:00:59;26.70;37.70
21275;DHT22;36472;52.170;20.884;2024-01-27T11:03:29;26.50;37.50
21275;DHT22;36472;52.170;20.884;2024-01-27T11:06:01;26.50;37.70
21275;DHT22;36472;52.170;20.884;2024-01-27T11:08:33;26.60;37.80
21275;DHT22;36472;52.170;20.884;2024-01-27T11:11:05;26.70;37.70
21275;DHT22;36472;52.170;20.884;2024-01-27T11:13:34;26.70;37.50
21275;DHT22;36472;52.170;20.884;2024-01-27T11:16:06;26.60;37.40
21275;DHT22;36472;52.170;20.884;2024-01-27T11:18:43;26.60;37.50
21275;DHT22;36472;52.170;20.884;2024-01-27T11:21:15;26.70;38.40
21275;DHT22;36472;52.170;20.884;2024-01-27T11:23:45;26.40;37.20
21275;DHT22;36472;52.170;20.884;2024-01-27T11:26:20;26.30;37.50
21275;DHT22;36472;52.170;20.884;2024-01-27T11:28:50;26.30;37.50
21275;DHT22;36472;52.170;20.884;2024-01-27T11:31:20;26.30;37.40
21275;DHT22;36472;52.170;20.884;2024-01-27T11:33:50;26.20;37.30
21275;DHT22;36472;52.170;20.884;2024-01-27T11:36:24;26.40;37.50
21275;DHT22;36472;52.170;20.884;2024-01-27T11:38:55;26.30;37.50
21275;DHT22;36472;52.170;20.884;2024-01-27T11:41:27;26.40;37.40
21275;DHT22;36472;52.170;20.884;2024-01-27T11:43:58;26.30;37.20
21275;DHT22;36472;52.170;20.884;2024-01-27T11:46:28;26.40;37.00
21275;DHT22;36472;52.170;20.884;2024-01-27T11:48:57;26.30;36.90
21275;DHT22;36472;52.170;20.884;2024-01-27T11:51:28;26.20;36.90
21275;DHT22;36472;52.170;20.884;2024-01-27T11:53:58;26.30;37.30
21275;DHT22;36472;52.170;20.884;2024-01-27T11:56:27;26.30;37.00
21275;DHT22;36472;52.170;20.884;2024-01-27T11:58:56;26.20;37.10
21275;DHT22;36472;52.170;20.884;2024-01-27T12:01:26;26.10;36.90
21275;DHT22;36472;52.170;20.884;2024-01-27T12:03:55;26.00;36.90
21275;DHT22;36472;52.170;20.884;2024-01-27T12:06:24;25.90;37.20
21275;DHT22;36472;52.170;20.884;2024-01-27T12:08:56;26.10;37.20
21275;DHT22;36472;52.170;20.884;2024-01-27T12:11:26;25.80;37.20
21275;DHT22;36472;52.170;20.884;2024-01-27T12:13:57;26.00;37.30
21275;DHT22;36472;52.170;20.884;2024-01-27T12:16:26;26.20;37.40
21275;DHT22;36472;52.170;20.884;2024-01-27T12:18:57;26.10;37.00
21275;DHT22;36472;52.170;20.884;2024-01-27T12:21:26;26.00;37.00
21275;DHT22;36472;52.170;20.884;2024-01-27T12:23:58;25.80;37.10
21275;DHT22;36472;52.170;20.884;2024-01-27T12:26:29;25.80;37.80
21275;DHT22;36472;52.170;20.884;2024-01-27T12:28:59;26.00;38.10
21275;DHT22;36472;52.170;20.884;2024-01-27T12:31:29;26.00;37.20
21275;DHT22;36472;52.170;20.884;2024-01-27T12:33:58;26.20;37.30
21275;DHT22;36472;52.170;20.884;2024-01-27T12:36:28;26.20;37.10
21275;DHT22;36472;52.170;20.884;2024-01-27T12:39:01;25.80;36.90
21275;DHT22;36472;52.170;20.884;2024-01-27T12:41:32;26.10;37.20
21275;DHT22;36472;52.170;20.884;2024-01-27T12:44:02;26.20;37.70
21275;DHT22;36472;52.170;20.884;2024-01-27T12:46:31;26.10;36.60
21275;DHT22;36472;52.170;20.884;2024-01-27T12:49:00;26.30;36.90
21275;DHT22;36472;52.170;20.884;2024-01-27T12:51:31;26.50;36.90
21275;DHT22;36472;52.170;20.884;2024-01-27T12:54:01;26.50;36.50
21275;DHT22;36472;52.170;20.884;2024-01-27T12:56:30;26.50;36.60
21275;DHT22;36472;52.170;20.884;2024-01-27T12:59:02;26.50;36.30
21275;DHT22;36472;52.170;20.884;2024-01-27T13:01:33;26.40;36.30
21275;DHT22;36472;52.170;20.884;2024-01-27T13:04:02;26.50;36.50
21275;DHT22;36472;52.170;20.884;2024-01-27T13:06:31;26.30;36.30
21275;DHT22;36472;52.170;20.884;2024-01-27T13:09:02;26.10;36.50
21275;DHT22;36472;52.170;20.884;2024-01-27T13:11:31;26.10;36.60
21275;DHT22;36472;52.170;20.884;2024-01-27T13:14:00;26.30;36.70
21275;DHT22;36472;52.170;20.884;2024-01-27T13:16:29;26.50;36.80
21275;DHT22;36472;52.170;20.884;2024-01-27T13:18:58;26.50;37.20
21275;DHT22;36472;52.170;20.884;2024-01-27T13:21:28;26.60;36.40
21275;DHT22;36472;52.170;20.884;2024-01-27T13:23:56;26.70;36.30
21275;DHT22;36472;52.170;20.884;2024-01-27T13:26:27;26.70;36.20
21275;DHT22;36472;52.170;20.884;2024-01-27T13:28:58;26.50;36.70
21275;DHT22;36472;52.170;20.884;2024-01-27T13:31:27;26.50;36.10
21275;DHT22;36472;52.170;20.884;2024-01-27T13:33:56;26.50;36.20
21275;DHT22;36472;52.170;20.884;2024-01-27T13:36:26;26.60;36.20
21275;DHT22;36472;52.170;20.884;2024-01-27T13:38:55;26.60;36.10
21275;DHT22;36472;52.170;20.884;2024-01-27T13:41:27;26.70;36.00
21275;DHT22;36472;52.170;20.884;2024-01-27T13:43:56;26.60;35.80
21275;DHT22;36472;52.170;20.884;2024-01-27T13:46:25;26.70;35.80
21275;DHT22;36472;52.170;20.884;2024-01-27T13:48:54;26.70;35.80
21275;DHT22;36472;52.170;20.884;2024-01-27T13:51:24;26.50;35.90
21275;DHT22;36472;52.170;20.884;2024-01-27T13:53:53;26.20;36.10
21275;DHT22;36472;52.170;20.884;2024-01-27T13:56:22;26.50;36.30
21275;DHT22;36472;52.170;20.884;2024-01-27T13:58:52;26.30;36.20
21275;DHT22;36472;52.170;20.884;2024-01-27T14:01:22;26.50;36.40
21275;DHT22;36472;52.170;20.884;2024-01-27T14:03:51;26.60;36.20
21275;DHT22;36472;52.170;20.884;2024-01-27T14:06:20;26.50;36.00
21275;DHT22;36472;52.170;20.884;2024-01-27T14:08:49;26.60;36.10
21275;DHT22;36472;52.170;20.884;2024-01-27T14:11:18;26.60;35.90
21275;DHT22;36472;52.170;20.884;2024-01-27T14:13:48;26.60;35.60
21275;DHT22;36472;52.170;20.884;2024-01-27T14:16:19;26.30;35.70
21275;DHT22;36472;52.170;20.884;2024-01-27T14:18:48;26.30;35.80
21275;DHT22;36472;52.170;20.884;2024-01-27T14:21:18;26.10;36.00
21275;DHT22;36472;52.170;20.884;2024-01-27T14:23:47;26.50;36.30
21275;DHT22;36472;52.170;20.884;2024-01-27T14:26:16;26.40;35.60
21275;DHT22;36472;52.170;20.884;2024-01-27T14:28:45;26.20;35.80
21275;DHT22;36472;52.170;20.884;2024-01-27T14:31:14;26.40;35.80
21275;DHT22;36472;52.170;20.884;2024-01-27T14:33:44;26.50;35.60
21275;DHT22;36472;52.170;20.884;2024-01-27T14:36:14;26.30;35.30
21275;DHT22;36472;52.170;20.884;2024-01-27T14:38:43;26.40;35.40
21275;DHT22;36472;52.170;20.884;2024-01-27T14:41:13;26.20;35.30
21275;DHT22;36472;52.170;20.884;2024-01-27T14:43:42;26.40;35.30
21275;DHT22;36472;52.170;20.884;2024-01-27T14:46:11;26.40;35.30
21275;DHT22;36472;52.170;20.884;2024-01-27T14:48:41;26.30;35.40
21275;DHT22;36472;52.170;20.884;2024-01-27T14:51:14;26.30;35.60
21275;DHT22;36472;52.170;20.884;2024-01-27T14:53:43;26.20;35.80
21275;DHT22;36472;52.170;20.884;2024-01-27T14:56:13;26.10;35.70
21275;DHT22;36472;52.170;20.884;2024-01-27T14:58:43;26.00;35.90
21275;DHT22;36472;52.170;20.884;2024-01-27T15:01:14;26.20;36.20
21275;DHT22;36472;52.170;20.884;2024-01-27T15:03:44;26.20;36.40
21275;DHT22;36472;52.170;20.884;2024-01-27T15:06:15;26.30;36.30
21275;DHT22;36472;52.170;20.884;2024-01-27T15:08:44;26.00;36.00
21275;DHT22;36472;52.170;20.884;2024-01-27T15:11:13;26.00;36.70
21275;DHT22;36472;52.170;20.884;2024-01-27T15:13:42;26.10;36.00
21275;DHT22;36472;52.170;20.884;2024-01-27T15:16:12;26.20;36.10
21275;DHT22;36472;52.170;20.884;2024-01-27T15:18:41;25.90;35.70
21275;DHT22;36472;52.170;20.884;2024-01-27T15:21:12;25.90;36.00
21275;DHT22;36472;52.170;20.884;2024-01-27T15:23:42;26.00;36.20
21275;DHT22;36472;52.170;20.884;2024-01-27T15:26:11;26.00;36.00
21275;DHT22;36472;52.170;20.884;2024-01-27T15:28:40;25.70;36.20
21275;DHT22;36472;52.170;20.884;2024-01-27T15:31:09;25.70;36.20